Time;durP1;ratioP1;P1;durP2;ratioP2;P2;SDS_P1;SDS_P2;PMS_P1;PMS_P2;Temp;Humidity;BMP_temperature;BMP_pressure;BME280_temperature;BME280_humidity;BME280_pressure;Samples;Min_cycle;Max_cycle;Signal;HPM_P1;HPM_P2
2023/01/15 00:00:19;;;;;;;5.90;0.87;;;11.40;84.10;;;;;;5050372;28;20539;-70
2023/01/15 00:02:47;;;;;;;4.60;0.93;;;11.40;84.20;;;;;;5051828;28;20986;-70
2023/01/15 00:05:15;;;;;;;3.40;0.93;;;11.30;84.20;;;;;;5048044;28;20466;-70
2023/01/15 00:07:44;;;;;;;3.43;0.77;;;11.40;84.20;;;;;;5043647;28;20478;-70
2023/01/15 00:10:12;;;;;;;3.83;0.80;;;11.40;84.20;;;;;;5048264;28;20509;-70
2023/01/15 00:12:40;;;;;;;2.87;0.70;;;11.40;84.30;;;;;;5049067;28;20459;-69
2023/01/15 00:15:09;;;;;;;2.67;0.60;;;11.40;84.30;;;;;;5051976;28;20548;-72
2023/01/15 00:17:37;;;;;;;4.00;0.73;;;11.40;84.30;;;;;;5054098;28;20538;-69
2023/01/15 00:20:05;;;;;;;3.10;0.73;;;11.30;84.40;;;;;;5051134;28;20459;-70
2023/01/15 00:22:33;;;;;;;3.37;0.77;;;11.40;84.40;;;;;;5053628;28;20456;-70
2023/01/15 00:27:49;;;;;;;2.60;0.50;;;11.40;84.50;;;;;;5050386;28;20478;-70
2023/01/15 00:30:17;;;;;;;3.97;0.80;;;11.40;84.50;;;;;;5044720;28;20528;-70
2023/01/15 00:32:45;;;;;;;2.70;0.60;;;11.40;84.50;;;;;;5044810;28;20468;-72
2023/01/15 00:35:16;;;;;;;2.80;0.70;;;11.40;84.50;;;;;;5053490;28;20526;-69
2023/01/15 00:37:44;;;;;;;3.67;0.70;;;11.40;84.60;;;;;;5049450;28;20478;-70
2023/01/15 00:40:15;;;;;;;2.87;0.90;;;11.40;84.60;;;;;;5044585;28;20470;-70
2023/01/15 00:42:43;;;;;;;3.67;1.03;;;11.40;84.60;;;;;;5047819;28;20458;-71
2023/01/15 00:45:21;;;;;;;4.07;0.60;;;11.40;84.70;;;;;;5045429;28;20537;-70
2023/01/15 00:47:49;;;;;;;2.50;0.50;;;11.50;84.60;;;;;;5052581;28;20483;-69
2023/01/15 00:50:17;;;;;;;5.03;0.70;;;11.50;84.60;;;;;;5050556;28;20527;-70
2023/01/15 00:52:45;;;;;;;2.80;0.60;;;11.50;84.70;;;;;;5048595;28;20819;-70
2023/01/15 00:55:15;;;;;;;2.50;0.50;;;11.50;84.80;;;;;;5045051;28;21164;-70
2023/01/15 00:57:42;;;;;;;2.50;0.50;;;11.50;84.80;;;;;;5051303;28;20934;-71
2023/01/15 01:00:12;;;;;;;2.60;0.60;;;11.50;84.80;;;;;;5045972;28;20467;-68
2023/01/15 01:02:40;;;;;;;2.93;0.60;;;11.50;84.80;;;;;;5047758;28;20490;-68
2023/01/15 01:05:09;;;;;;;3.07;0.70;;;11.50;84.80;;;;;;5048718;28;20452;-69
2023/01/15 01:07:37;;;;;;;2.87;0.70;;;11.50;84.90;;;;;;5048769;28;20485;-69
2023/01/15 01:10:05;;;;;;;2.70;0.43;;;11.50;84.90;;;;;;5050800;28;20453;-69
2023/01/15 01:12:37;;;;;;;2.40;0.40;;;11.50;84.90;;;;;;5049747;28;21336;-69
2023/01/15 01:15:06;;;;;;;2.60;0.50;;;11.60;84.80;;;;;;5045516;28;20531;-70
2023/01/15 01:17:34;;;;;;;3.07;0.60;;;11.60;84.90;;;;;;5048259;28;20503;-69
2023/01/15 01:20:03;;;;;;;2.90;0.60;;;11.60;84.90;;;;;;5044686;28;20477;-69
2023/01/15 01:22:32;;;;;;;3.27;0.43;;;11.60;84.90;;;;;;5047843;28;20459;-70
2023/01/15 01:25:01;;;;;;;3.20;0.70;;;11.60;84.90;;;;;;5048927;28;20505;-70
2023/01/15 01:27:29;;;;;;;5.80;0.40;;;11.60;84.90;;;;;;5050548;28;20486;-70
2023/01/15 01:30:00;;;;;;;2.80;0.50;;;11.60;85.00;;;;;;5052127;28;20450;-69
2023/01/15 01:32:28;;;;;;;2.27;0.33;;;11.60;84.90;;;;;;5045786;28;20462;-69
2023/01/15 01:34:56;;;;;;;3.13;0.67;;;11.60;84.90;;;;;;5048096;28;20553;-69
2023/01/15 01:37:24;;;;;;;3.00;0.60;;;11.70;84.90;;;;;;5043285;28;20504;-69
2023/01/15 01:39:52;;;;;;;3.70;0.63;;;11.70;85.00;;;;;;5044472;28;20523;-70
2023/01/15 01:42:20;;;;;;;3.40;0.50;;;11.70;85.00;;;;;;5051662;28;20465;-70
2023/01/15 01:45:03;;;;;;;3.43;0.60;;;11.70;85.00;;;;;;5050224;28;20454;-70
2023/01/15 01:47:32;;;;;;;2.50;0.40;;;11.70;85.20;;;;;;5048158;28;20494;-70
2023/01/15 01:50:05;;;;;;;2.50;0.40;;;11.70;85.20;;;;;;5047637;28;20447;-70
2023/01/15 01:52:39;;;;;;;2.73;0.60;;;11.70;85.20;;;;;;5042292;28;20465;-70
2023/01/15 01:55:08;;;;;;;2.60;0.50;;;11.70;85.10;;;;;;5044292;28;20549;-70
2023/01/15 01:57:38;;;;;;;3.20;0.40;;;11.70;85.20;;;;;;5047503;28;20485;-70
2023/01/15 02:00:10;;;;;;;2.23;0.30;;;11.70;85.40;;;;;;5046685;28;20464;-70
2023/01/15 02:02:42;;;;;;;4.20;0.40;;;11.70;85.30;;;;;;5050618;28;20515;-70
2023/01/15 02:05:13;;;;;;;2.63;0.40;;;11.70;85.40;;;;;;5045454;28;20484;-69
2023/01/15 02:07:42;;;;;;;2.50;0.40;;;11.60;85.50;;;;;;5044929;28;20501;-70
2023/01/15 02:10:14;;;;;;;2.70;0.40;;;11.70;85.40;;;;;;5043867;28;20545;-70
2023/01/15 02:12:49;;;;;;;3.63;0.60;;;11.70;85.50;;;;;;5064300;28;20877;-70
2023/01/15 02:15:25;;;;;;;2.40;0.47;;;11.70;85.50;;;;;;5046734;28;20486;-69
2023/01/15 02:17:57;;;;;;;2.60;0.50;;;11.70;85.50;;;;;;5056968;28;21085;-70
2023/01/15 02:20:32;;;;;;;2.60;0.50;;;11.70;85.60;;;;;;5041155;28;20464;-69
2023/01/15 02:23:29;;;;;;;2.40;0.40;;;11.70;85.60;;;;;;5051923;28;20524;-70
2023/01/15 02:26:31;;;;;;;3.60;0.50;;;11.70;85.50;;;;;;5043727;28;20830;-70
2023/01/15 02:29:01;;;;;;;3.63;0.40;;;11.70;85.60;;;;;;5051221;28;20497;-70
2023/01/15 02:31:34;;;;;;;2.40;0.40;;;11.60;85.60;;;;;;5048889;28;20569;-69
2023/01/15 02:34:06;;;;;;;2.57;0.60;;;11.60;85.60;;;;;;5055926;28;20463;-70
2023/01/15 02:36:40;;;;;;;2.90;0.50;;;11.60;85.60;;;;;;5043945;28;20577;-71
2023/01/15 02:39:16;;;;;;;3.57;0.40;;;11.70;85.70;;;;;;5051000;28;20470;-71
2023/01/15 02:41:47;;;;;;;2.37;0.40;;;11.70;85.60;;;;;;5047383;28;20462;-71
2023/01/15 02:44:20;;;;;;;2.53;0.50;;;11.70;85.60;;;;;;5045443;28;20491;-71
2023/01/15 02:46:49;;;;;;;3.33;0.40;;;11.70;85.70;;;;;;5059713;28;20519;-70
2023/01/15 02:49:21;;;;;;;3.73;0.50;;;11.70;85.70;;;;;;5043132;28;20482;-70
2023/01/15 02:51:55;;;;;;;2.23;0.40;;;11.70;85.70;;;;;;5051026;28;21197;-71
2023/01/15 02:54:28;;;;;;;2.40;0.40;;;11.60;85.80;;;;;;5038277;28;21483;-70
2023/01/15 02:57:02;;;;;;;2.30;0.30;;;11.70;85.80;;;;;;5075631;28;21321;-70
2023/01/15 02:59:38;;;;;;;2.40;0.30;;;11.70;85.80;;;;;;5052912;28;20460;-70
2023/01/15 03:02:13;;;;;;;2.97;0.50;;;11.70;85.90;;;;;;5046666;28;20610;-70
2023/01/15 03:04:47;;;;;;;2.87;0.37;;;11.60;86.00;;;;;;5046502;28;20459;-69
2023/01/15 03:07:21;;;;;;;2.50;0.40;;;11.60;86.00;;;;;;5053868;28;20490;-70
2023/01/15 03:09:51;;;;;;;2.50;0.37;;;11.70;86.00;;;;;;5046784;28;20507;-69
2023/01/15 03:12:25;;;;;;;2.90;0.40;;;11.70;86.00;;;;;;5050367;28;20546;-70
2023/01/15 03:15:04;;;;;;;2.40;0.40;;;11.70;86.00;;;;;;5048595;28;20830;-70
2023/01/15 03:17:37;;;;;;;3.13;0.50;;;11.70;86.10;;;;;;5042704;28;20490;-70
2023/01/15 03:20:11;;;;;;;2.50;0.40;;;11.70;86.10;;;;;;5048812;28;20463;-69
2023/01/15 03:22:45;;;;;;;2.27;0.30;;;11.70;86.10;;;;;;5050874;28;20464;-70
2023/01/15 03:25:20;;;;;;;2.70;0.47;;;11.70;86.10;;;;;;5051110;28;20461;-70
2023/01/15 03:27:55;;;;;;;2.50;0.47;;;11.70;86.10;;;;;;5064949;28;20858;-70
2023/01/15 03:30:25;;;;;;;2.37;0.37;;;11.70;86.10;;;;;;5051946;28;20488;-69
2023/01/15 03:32:55;;;;;;;2.30;0.40;;;11.70;86.10;;;;;;5048095;28;20462;-69
2023/01/15 03:35:46;;;;;;;2.60;0.50;;;11.70;86.10;;;;;;5046176;28;20556;-70
2023/01/15 03:38:39;;;;;;;2.33;0.40;;;11.70;86.10;;;;;;5046947;28;21025;-70
2023/01/15 03:41:20;;;;;;;2.80;0.40;;;11.70;86.10;;;;;;5049269;28;20462;-70
2023/01/15 03:44:01;;;;;;;2.77;0.47;;;11.70;86.10;;;;;;5059052;28;20514;-70
2023/01/15 03:46:53;;;;;;;3.30;0.60;;;11.70;86.10;;;;;;5038666;28;20513;-70
2023/01/15 03:49:31;;;;;;;2.40;0.40;;;11.80;86.20;;;;;;5045444;28;20536;-70
2023/01/15 03:52:10;;;;;;;4.23;0.43;;;11.80;86.10;;;;;;5045427;28;20978;-70
2023/01/15 03:54:48;;;;;;;2.20;0.30;;;11.70;86.20;;;;;;5047054;28;20461;-70
2023/01/15 03:57:26;;;;;;;2.20;0.30;;;11.70;86.30;;;;;;5051879;28;20495;-70
2023/01/15 03:59:57;;;;;;;2.90;0.40;;;11.70;86.20;;;;;;5049816;28;21095;-69
2023/01/15 04:02:30;;;;;;;2.30;0.40;;;11.70;86.30;;;;;;5046608;28;20565;-71
2023/01/15 04:04:59;;;;;;;2.20;0.30;;;11.70;86.30;;;;;;5045413;28;20848;-70
2023/01/15 04:07:30;;;;;;;2.97;0.50;;;11.70;86.10;;;;;;5049955;28;20579;-69
2023/01/15 04:09:58;;;;;;;2.30;0.30;;;11.60;86.20;;;;;;5048880;28;20863;-70
2023/01/15 04:12:27;;;;;;;2.20;0.30;;;11.60;86.30;;;;;;5047573;28;20454;-70
2023/01/15 04:14:56;;;;;;;2.20;0.30;;;11.60;86.10;;;;;;5047059;28;20464;-70
2023/01/15 04:17:26;;;;;;;3.23;0.40;;;11.60;86.00;;;;;;5049204;28;20486;-70
2023/01/15 04:19:54;;;;;;;2.20;0.30;;;11.50;86.00;;;;;;5047595;28;20459;-69
2023/01/15 04:22:23;;;;;;;2.23;0.30;;;11.50;86.00;;;;;;5047398;28;20903;-70
2023/01/15 04:24:53;;;;;;;2.40;0.30;;;11.40;86.00;;;;;;5041184;28;20463;-69
2023/01/15 04:27:21;;;;;;;2.30;0.30;;;11.40;86.00;;;;;;5047938;28;20470;-70
2023/01/15 04:29:49;;;;;;;2.23;0.30;;;11.40;86.00;;;;;;5050554;28;20545;-70
2023/01/15 04:32:17;;;;;;;2.40;0.40;;;11.30;86.00;;;;;;5053779;28;20458;-69
2023/01/15 04:34:47;;;;;;;2.67;0.30;;;11.30;85.90;;;;;;5056490;28;20493;-70
2023/01/15 04:37:16;;;;;;;2.30;0.30;;;11.30;85.90;;;;;;5049064;28;20478;-69
2023/01/15 04:39:44;;;;;;;5.23;0.40;;;11.30;85.90;;;;;;5051340;28;21018;-70
2023/01/15 04:44:58;;;;;;;2.30;0.30;;;11.20;86.00;;;;;;5045567;28;20451;-70
2023/01/15 04:47:29;;;;;;;2.60;0.30;;;11.20;86.00;;;;;;5053373;28;20475;-70
2023/01/15 04:49:58;;;;;;;3.27;0.63;;;11.20;86.00;;;;;;5050045;28;22884;-69
2023/01/15 04:52:26;;;;;;;2.40;0.40;;;11.20;85.80;;;;;;5046814;28;20458;-70
2023/01/15 04:54:54;;;;;;;2.40;0.40;;;11.20;85.70;;;;;;5048352;28;20749;-71
2023/01/15 04:57:22;;;;;;;2.30;0.30;;;11.10;85.40;;;;;;5045946;28;21239;-70
2023/01/15 04:59:50;;;;;;;2.67;0.37;;;11.00;85.40;;;;;;5045365;28;20456;-69
2023/01/15 05:02:18;;;;;;;2.93;0.40;;;10.90;85.20;;;;;;5042631;28;20466;-69
2023/01/15 05:04:46;;;;;;;2.40;0.40;;;10.80;85.40;;;;;;5043245;28;21213;-69
2023/01/15 05:07:16;;;;;;;2.30;0.30;;;10.70;85.30;;;;;;5040398;28;20851;-70
2023/01/15 05:09:44;;;;;;;3.73;0.30;;;10.60;85.50;;;;;;5049698;28;20497;-70
2023/01/15 05:12:12;;;;;;;2.40;0.30;;;10.60;85.20;;;;;;5046760;28;20463;-70
2023/01/15 05:14:39;;;;;;;2.30;0.30;;;10.50;85.20;;;;;;5056387;28;20447;-70
2023/01/15 05:17:07;;;;;;;2.80;0.40;;;10.40;85.20;;;;;;5052628;28;20549;-70
2023/01/15 05:19:35;;;;;;;3.60;0.37;;;10.30;85.50;;;;;;5046934;28;20452;-70
2023/01/15 05:22:03;;;;;;;2.37;0.30;;;10.20;85.60;;;;;;5052685;28;20501;-69
2023/01/15 05:24:33;;;;;;;2.40;0.40;;;10.20;85.60;;;;;;5051701;28;20471;-69
2023/01/15 05:27:01;;;;;;;2.33;0.40;;;10.20;85.60;;;;;;5050494;28;20497;-70
2023/01/15 05:29:29;;;;;;;2.30;0.30;;;10.20;85.50;;;;;;5052926;28;20470;-70
2023/01/15 05:31:57;;;;;;;2.50;0.40;;;10.20;85.60;;;;;;5044519;28;20466;-70
2023/01/15 05:34:25;;;;;;;2.40;0.40;;;10.20;85.50;;;;;;5053909;28;20454;-70
2023/01/15 05:36:53;;;;;;;2.40;0.30;;;10.20;85.50;;;;;;5046569;28;20547;-70
2023/01/15 05:39:21;;;;;;;3.07;0.40;;;10.20;85.50;;;;;;5050196;28;20466;-69
2023/01/15 05:41:51;;;;;;;2.40;0.40;;;10.20;85.40;;;;;;5047529;28;20872;-69
2023/01/15 05:44:23;;;;;;;2.90;0.37;;;10.20;85.00;;;;;;5048648;28;20845;-69
2023/01/15 05:46:53;;;;;;;2.93;0.37;;;10.10;85.20;;;;;;5046094;28;20540;-70
2023/01/15 05:49:23;;;;;;;2.40;0.37;;;10.10;85.30;;;;;;5054425;28;20462;-70
2023/01/15 05:51:53;;;;;;;5.30;0.40;;;10.10;85.30;;;;;;5049593;28;20451;-70
2023/01/15 05:54:23;;;;;;;3.90;0.40;;;10.10;85.30;;;;;;5053898;28;20454;-69
2023/01/15 05:56:53;;;;;;;2.50;0.40;;;10.10;85.30;;;;;;5050173;28;20491;-69
2023/01/15 05:59:23;;;;;;;2.40;0.40;;;10.10;85.10;;;;;;5048679;28;20481;-69
2023/01/15 06:01:51;;;;;;;2.57;0.40;;;10.20;85.10;;;;;;5044156;28;20459;-70
2023/01/15 06:04:20;;;;;;;2.40;0.40;;;10.20;85.00;;;;;;5046203;28;20473;-70
2023/01/15 06:06:50;;;;;;;2.80;0.57;;;10.10;84.20;;;;;;5049648;28;20479;-70
2023/01/15 06:09:18;;;;;;;2.47;0.40;;;10.00;84.30;;;;;;5048944;28;20541;-70
2023/01/15 06:11:47;;;;;;;2.40;0.40;;;10.00;84.40;;;;;;5047023;28;20481;-70
2023/01/15 06:14:16;;;;;;;4.03;1.27;;;9.90;84.50;;;;;;5050535;28;20493;-70
2023/01/15 06:16:44;;;;;;;2.80;0.57;;;9.90;84.40;;;;;;5045533;28;20494;-70
2023/01/15 06:19:13;;;;;;;2.70;0.50;;;9.80;84.00;;;;;;5048964;28;22213;-69
2023/01/15 06:21:41;;;;;;;3.00;0.40;;;9.70;84.10;;;;;;5049705;28;20451;-69
2023/01/15 06:24:10;;;;;;;3.00;0.50;;;9.70;84.20;;;;;;5045846;28;20457;-69
2023/01/15 06:26:39;;;;;;;5.80;2.10;;;9.70;83.90;;;;;;5049394;28;20507;-69
2023/01/15 06:29:07;;;;;;;6.87;2.37;;;9.60;83.80;;;;;;5050260;28;20914;-70
2023/01/15 06:31:36;;;;;;;3.00;0.77;;;9.50;83.50;;;;;;5051017;28;20534;-70
2023/01/15 06:34:04;;;;;;;6.20;1.40;;;9.40;83.40;;;;;;5048226;28;21050;-70
2023/01/15 06:36:32;;;;;;;9.90;4.17;;;9.30;83.40;;;;;;5049898;28;20460;-69
2023/01/15 06:39:00;;;;;;;7.90;2.60;;;9.20;83.40;;;;;;5044934;28;20463;-69
2023/01/15 06:47:23;;;;;;;8.00;2.67;;;8.80;82.60;;;;;;5044805;28;20592;-69
2023/01/15 06:49:53;;;;;;;8.40;3.22;;;8.60;82.90;;;;;;5041202;28;20522;-69
2023/01/15 06:52:22;;;;;;;7.30;1.40;;;8.50;83.00;;;;;;5044769;28;20212;-69
2023/01/15 06:54:50;;;;;;;3.17;0.80;;;8.50;83.30;;;;;;5047132;28;20463;-70
2023/01/15 06:57:18;;;;;;;7.20;3.87;;;8.50;83.60;;;;;;5046600;28;20477;-69
2023/01/15 06:59:47;;;;;;;9.30;3.77;;;8.60;83.20;;;;;;5050924;28;20508;-70
2023/01/15 07:02:17;;;;;;;3.40;1.23;;;8.60;83.30;;;;;;5042983;28;20459;-71
2023/01/15 07:04:46;;;;;;;5.80;2.37;;;8.60;83.60;;;;;;5049975;28;20678;-69
2023/01/15 07:07:14;;;;;;;9.20;5.63;;;8.70;83.60;;;;;;5049149;28;20485;-70
2023/01/15 07:09:42;;;;;;;16.03;5.77;;;8.70;83.50;;;;;;5049344;28;20457;-69
2023/01/15 07:12:10;;;;;;;5.43;1.80;;;8.80;83.40;;;;;;5045694;28;20467;-70
2023/01/15 07:14:38;;;;;;;3.67;1.30;;;8.80;83.40;;;;;;5048956;28;20257;-70
2023/01/15 07:17:06;;;;;;;2.60;0.60;;;8.80;83.20;;;;;;5044919;28;20495;-70
2023/01/15 07:19:36;;;;;;;2.60;0.60;;;8.80;83.30;;;;;;5046138;28;20971;-70
2023/01/15 07:22:04;;;;;;;2.93;0.50;;;8.90;83.30;;;;;;5048710;28;20472;-70
2023/01/15 07:24:32;;;;;;;2.80;0.60;;;9.00;83.20;;;;;;5046803;28;20478;-69
2023/01/15 07:27:00;;;;;;;2.50;0.40;;;9.00;83.10;;;;;;5045566;28;20379;-69
2023/01/15 07:29:28;;;;;;;2.83;0.63;;;8.90;83.00;;;;;;5048808;28;20466;-70
2023/01/15 07:31:58;;;;;;;3.53;0.57;;;9.00;83.10;;;;;;5045970;28;20457;-70
2023/01/15 07:34:26;;;;;;;3.90;0.60;;;9.00;83.10;;;;;;5046542;28;20489;-70
2023/01/15 07:36:55;;;;;;;4.20;0.50;;;9.00;83.00;;;;;;5052248;28;20525;-69
2023/01/15 07:39:23;;;;;;;3.10;0.60;;;9.10;83.00;;;;;;5049146;28;20477;-70
2023/01/15 07:50:12;;;;;;;2.60;0.47;;;9.00;82.70;;;;;;5048951;28;20447;-70
2023/01/15 07:52:41;;;;;;;3.00;0.60;;;9.00;82.60;;;;;;5051196;28;20455;-70
2023/01/15 07:55:11;;;;;;;2.50;0.40;;;9.00;82.60;;;;;;5050875;28;20465;-70
2023/01/15 07:57:40;;;;;;;3.33;0.50;;;9.00;82.60;;;;;;5051540;28;20508;-69
2023/01/15 08:00:11;;;;;;;2.77;0.50;;;9.00;82.50;;;;;;5048631;28;20489;-70
2023/01/15 08:02:40;;;;;;;2.50;0.40;;;9.00;82.40;;;;;;5047978;28;20553;-70
2023/01/15 08:05:10;;;;;;;2.87;0.50;;;9.00;82.40;;;;;;5050233;28;20458;-70
2023/01/15 08:07:39;;;;;;;3.03;0.70;;;9.00;82.40;;;;;;5050076;28;20476;-70
2023/01/15 08:10:10;;;;;;;2.60;0.50;;;9.00;82.40;;;;;;5053637;28;20537;-70
2023/01/15 08:15:24;;;;;;;2.50;0.50;;;9.00;82.40;;;;;;5046482;28;20964;-70
2023/01/15 08:17:53;;;;;;;2.97;0.40;;;9.00;82.30;;;;;;5047451;28;21007;-71
2023/01/15 08:20:23;;;;;;;2.50;0.50;;;9.00;82.30;;;;;;5047378;28;20494;-69
2023/01/15 08:22:51;;;;;;;2.73;0.43;;;9.00;82.30;;;;;;5046011;28;20452;-69
2023/01/15 08:25:23;;;;;;;3.17;0.50;;;9.00;82.30;;;;;;5046835;28;20454;-70
2023/01/15 08:27:51;;;;;;;2.47;0.40;;;9.00;82.20;;;;;;5048918;28;20549;-69
2023/01/15 08:30:21;;;;;;;3.10;0.50;;;9.00;82.20;;;;;;5048877;28;20478;-70
2023/01/15 08:32:49;;;;;;;2.70;0.60;;;9.00;82.20;;;;;;5044045;28;20459;-70
2023/01/15 08:35:17;;;;;;;2.80;0.60;;;9.00;82.00;;;;;;5044189;28;20447;-71
2023/01/15 08:37:45;;;;;;;2.80;0.70;;;9.00;82.00;;;;;;5043075;28;20492;-68
2023/01/15 08:40:13;;;;;;;2.97;0.90;;;9.00;81.90;;;;;;5041812;28;20475;-70
2023/01/15 08:42:42;;;;;;;2.60;0.70;;;9.00;82.00;;;;;;5051778;28;20455;-70
2023/01/15 08:45:11;;;;;;;2.40;0.43;;;9.00;81.90;;;;;;5049579;28;20476;-69
2023/01/15 08:47:39;;;;;;;2.40;0.40;;;9.00;81.90;;;;;;5047529;28;20542;-71
2023/01/15 08:50:08;;;;;;;2.40;0.40;;;8.90;81.80;;;;;;5050157;28;20721;-72
2023/01/15 08:52:37;;;;;;;2.77;0.43;;;8.90;81.70;;;;;;5051022;28;20967;-70
2023/01/15 08:55:06;;;;;;;2.60;0.47;;;8.90;81.70;;;;;;5055013;28;21105;-69
2023/01/15 08:57:36;;;;;;;2.40;0.40;;;8.90;81.70;;;;;;5046646;28;20486;-69
2023/01/15 09:00:07;;;;;;;2.90;0.80;;;8.90;81.70;;;;;;5044523;28;20454;-69
2023/01/15 09:02:35;;;;;;;2.60;0.60;;;8.90;81.60;;;;;;5039468;28;20454;-69
2023/01/15 09:05:03;;;;;;;2.93;0.87;;;8.90;81.50;;;;;;5044359;28;20486;-69
2023/01/15 09:07:31;;;;;;;2.97;0.60;;;8.80;81.20;;;;;;5045086;28;21011;-69
2023/01/15 09:09:59;;;;;;;2.60;0.50;;;8.80;81.30;;;;;;5043381;28;20459;-69
2023/01/15 09:12:28;;;;;;;2.90;0.80;;;8.70;81.20;;;;;;5043472;28;20474;-68
2023/01/15 09:14:56;;;;;;;3.00;0.80;;;8.60;81.10;;;;;;5049918;28;20443;-68
2023/01/15 09:17:32;;;;;;;3.23;0.63;;;8.60;81.00;;;;;;5050915;28;20501;-68
2023/01/15 09:20:01;;;;;;;3.03;0.70;;;8.50;81.30;;;;;;5048222;28;20485;-69
2023/01/15 09:22:29;;;;;;;3.10;0.80;;;8.50;81.30;;;;;;5047836;28;20250;-68
2023/01/15 09:24:58;;;;;;;2.60;0.57;;;8.50;81.10;;;;;;5047050;28;20208;-71
2023/01/15 09:27:26;;;;;;;3.00;0.60;;;8.40;81.30;;;;;;5050768;28;20478;-69
2023/01/15 09:29:54;;;;;;;3.47;0.60;;;8.50;81.40;;;;;;5047129;28;20303;-67
2023/01/15 09:32:22;;;;;;;2.60;0.47;;;8.50;81.40;;;;;;5047847;28;21092;-69
2023/01/15 09:34:52;;;;;;;2.50;0.57;;;8.50;81.30;;;;;;5052336;28;20476;-67
2023/01/15 09:37:20;;;;;;;2.50;0.50;;;8.50;81.30;;;;;;5058627;28;20907;-69
2023/01/15 09:39:48;;;;;;;3.17;0.83;;;8.50;81.30;;;;;;5045417;28;20747;-70
2023/01/15 09:42:37;;;;;;;9.45;1.00;;;8.50;81.30;;;;;;5041167;28;20775;-68
2023/01/15 09:45:16;;;;;;;3.57;0.60;;;8.50;81.30;;;;;;5044624;28;20291;-68
2023/01/15 09:47:53;;;;;;;2.40;0.40;;;8.50;81.30;;;;;;5054912;28;20489;-69
2023/01/15 09:50:31;;;;;;;2.55;0.60;;;8.50;81.30;;;;;;5047198;28;20503;-70
2023/01/15 09:53:22;;;;;;;2.40;0.50;;;8.50;81.30;;;;;;5034776;28;20730;-69
2023/01/15 09:55:52;;;;;;;3.10;0.50;;;8.50;81.30;;;;;;5045741;28;20451;-67
2023/01/15 09:58:25;;;;;;;2.70;0.70;;;8.50;81.30;;;;;;5044388;28;20225;-68
2023/01/15 10:00:53;;;;;;;2.60;0.60;;;8.50;81.30;;;;;;5044003;28;20261;-68
2023/01/15 10:03:29;;;;;;;2.80;0.70;;;8.50;81.10;;;;;;5042953;28;20675;-70
2023/01/15 10:06:07;;;;;;;3.50;0.90;;;8.50;81.30;;;;;;5043222;28;20477;-71
2023/01/15 10:08:40;;;;;;;2.80;0.80;;;8.50;81.10;;;;;;5047091;28;20220;-69
2023/01/15 10:11:22;;;;;;;3.22;0.88;;;8.50;81.10;;;;;;5053606;28;20197;-69
2023/01/15 10:13:55;;;;;;;3.00;0.80;;;8.50;81.30;;;;;;5051672;28;20211;-66
2023/01/15 10:16:27;;;;;;;2.90;0.90;;;8.50;81.30;;;;;;5045159;28;20200;-69
2023/01/15 10:18:57;;;;;;;3.35;1.17;;;8.50;81.30;;;;;;5046987;28;20544;-66
2023/01/15 10:21:37;;;;;;;3.15;1.10;;;8.50;81.50;;;;;;5048831;28;20206;-67
2023/01/15 10:24:12;;;;;;;3.10;0.93;;;8.60;81.60;;;;;;5046300;28;20759;-69
2023/01/15 10:26:46;;;;;;;3.03;1.10;;;8.70;81.70;;;;;;5051112;28;20962;-67
2023/01/15 10:29:19;;;;;;;3.00;1.00;;;8.70;81.90;;;;;;5050206;28;20249;-69
2023/01/15 10:31:52;;;;;;;3.05;1.02;;;8.80;81.90;;;;;;5055582;28;20469;-67
2023/01/15 10:34:53;;;;;;;3.30;1.17;;;8.90;81.90;;;;;;5047470;28;20196;-67
2023/01/15 10:37:28;;;;;;;3.10;1.07;;;9.00;82.00;;;;;;5044732;28;20487;-69
2023/01/15 10:40:14;;;;;;;2.90;1.00;;;9.00;82.00;;;;;;5040270;28;20528;-70
2023/01/15 10:42:54;;;;;;;4.13;0.80;;;9.10;81.90;;;;;;5045950;28;20536;-68
2023/01/15 10:45:26;;;;;;;4.43;0.87;;;9.10;81.60;;;;;;5047803;28;20205;-66
2023/01/15 10:48:00;;;;;;;3.00;0.70;;;9.10;81.40;;;;;;5048521;28;20481;-69
2023/01/15 10:50:28;;;;;;;2.90;0.80;;;9.10;81.60;;;;;;5044409;28;20459;-67
2023/01/15 10:53:07;;;;;;;2.80;0.80;;;9.10;81.60;;;;;;5045662;28;20539;-68
2023/01/15 10:55:40;;;;;;;2.90;0.70;;;9.10;81.70;;;;;;5046994;28;20491;-68
2023/01/15 10:58:14;;;;;;;3.70;0.70;;;9.10;81.80;;;;;;5043664;28;20216;-68
2023/01/15 11:00:50;;;;;;;2.93;0.73;;;9.20;81.80;;;;;;5043864;28;20509;-68
2023/01/15 11:03:23;;;;;;;2.80;0.50;;;9.20;81.60;;;;;;5045403;28;20457;-68
2023/01/15 11:05:50;;;;;;;4.60;0.53;;;9.20;81.60;;;;;;5042170;28;20488;-69
2023/01/15 11:08:27;;;;;;;2.37;0.40;;;9.20;81.20;;;;;;5044152;28;20486;-68
2023/01/15 11:19:35;;;;;;;2.70;0.60;;;9.10;81.30;;;;;;5045159;28;20541;-70
2023/01/15 11:19:44;;;;;;;2.80;0.50;;;9.10;81.30;;;;;;5046812;28;20489;-69
2023/01/15 11:22:14;;;;;;;2.47;0.47;;;9.10;81.30;;;;;;5045058;28;20458;-69
2023/01/15 11:24:49;;;;;;;2.80;0.50;;;9.10;81.20;;;;;;5045612;28;20500;-70
2023/01/15 11:27:20;;;;;;;4.30;0.70;;;9.10;81.20;;;;;;5045690;28;20925;-69
2023/01/15 11:29:53;;;;;;;4.17;0.60;;;9.10;81.10;;;;;;5043819;28;20463;-69
2023/01/15 11:32:26;;;;;;;2.90;0.70;;;9.10;81.00;;;;;;5047724;28;20458;-69
2023/01/15 11:34:55;;;;;;;4.67;0.67;;;9.10;81.10;;;;;;5044456;28;20465;-69
2023/01/15 11:37:24;;;;;;;3.60;0.70;;;9.10;81.20;;;;;;5049297;28;20504;-70
2023/01/15 11:39:59;;;;;;;2.40;0.50;;;9.10;81.00;;;;;;5049361;28;20507;-71
2023/01/15 11:50:52;;;;;;;2.75;0.57;;;9.00;80.60;;;;;;5053208;28;20196;-69
2023/01/15 11:53:23;;;;;;;2.90;0.50;;;9.00;80.50;;;;;;5053924;28;20700;-67
2023/01/15 11:55:59;;;;;;;4.30;1.03;;;8.90;80.50;;;;;;5051366;28;20466;-68
2023/01/15 11:58:29;;;;;;;2.63;0.60;;;8.90;80.60;;;;;;5051617;28;20879;-67
2023/01/15 12:00:58;;;;;;;2.60;0.50;;;8.90;80.60;;;;;;5049854;28;21541;-68
2023/01/15 12:03:30;;;;;;;2.70;0.60;;;8.90;80.60;;;;;;5047316;28;20460;-67
2023/01/15 12:06:04;;;;;;;5.05;0.85;;;8.90;80.40;;;;;;5044496;28;20554;-69
2023/01/15 12:08:54;;;;;;;3.27;0.67;;;8.90;80.40;;;;;;5047596;28;20282;-70
2023/01/15 12:11:46;;;;;;;3.73;0.70;;;8.90;80.30;;;;;;5045572;28;20466;-69
2023/01/15 12:14:43;;;;;;;4.75;0.70;;;8.90;80.00;;;;;;5047892;28;21287;-70
2023/01/15 12:17:23;;;;;;;3.60;0.90;;;8.80;80.00;;;;;;5046545;28;20240;-69
2023/01/15 12:20:00;;;;;;;2.90;0.70;;;8.80;79.90;;;;;;5046896;28;20466;-66
2023/01/15 12:22:41;;;;;;;2.97;0.70;;;8.80;80.10;;;;;;5046359;28;20849;-69
2023/01/15 12:25:21;;;;;;;3.10;0.70;;;8.80;80.10;;;;;;5046310;28;20465;-68
2023/01/15 12:28:01;;;;;;;3.07;0.90;;;8.80;80.20;;;;;;5045865;28;20229;-69
2023/01/15 12:30:38;;;;;;;3.53;0.63;;;8.70;80.00;;;;;;5045605;28;20446;-69
2023/01/15 12:33:30;;;;;;;2.70;0.60;;;8.70;79.90;;;;;;5046741;28;20254;-67
2023/01/15 12:36:03;;;;;;;5.60;0.50;;;8.70;79.80;;;;;;5045380;28;20467;-67
2023/01/15 12:38:45;;;;;;;3.42;0.80;;;8.70;79.90;;;;;;5045477;28;20657;-68
2023/01/15 12:41:17;;;;;;;4.82;0.70;;;8.70;79.70;;;;;;5044237;28;20217;-67
2023/01/15 12:46:40;;;;;;;2.90;0.60;;;8.60;79.60;;;;;;5045472;28;20936;-68
2023/01/15 12:49:19;;;;;;;2.90;0.70;;;8.50;79.50;;;;;;5046360;28;20463;-68
2023/01/15 12:51:53;;;;;;;3.93;0.63;;;8.50;79.60;;;;;;5049644;28;20207;-68
2023/01/15 12:54:25;;;;;;;4.63;0.77;;;8.50;79.70;;;;;;5050981;28;20462;-69
2023/01/15 12:56:58;;;;;;;2.90;0.70;;;8.50;79.80;;;;;;5049501;28;20501;-69
2023/01/15 12:59:35;;;;;;;3.63;0.70;;;8.50;79.90;;;;;;5048442;28;20208;-70
2023/01/15 13:02:15;;;;;;;3.30;0.70;;;8.50;79.80;;;;;;5050456;28;20211;-68
2023/01/15 13:04:48;;;;;;;3.05;0.60;;;8.50;79.70;;;;;;5048830;28;20487;-69
2023/01/15 13:07:23;;;;;;;2.63;0.50;;;8.60;79.70;;;;;;5047975;28;20297;-68
2023/01/15 13:09:58;;;;;;;3.13;0.85;;;8.50;79.60;;;;;;5044257;28;20556;-68
2023/01/15 13:12:27;;;;;;;5.80;1.00;;;8.60;79.60;;;;;;5040995;28;20208;-68
2023/01/15 13:14:57;;;;;;;3.28;0.70;;;8.60;79.60;;;;;;5038568;28;20207;-68
2023/01/15 13:17:33;;;;;;;8.13;1.53;;;8.50;79.40;;;;;;5044049;28;20283;-68
2023/01/15 13:20:17;;;;;;;2.88;0.70;;;8.50;79.40;;;;;;5045601;28;20448;-69
2023/01/15 13:22:55;;;;;;;3.00;0.60;;;8.50;79.30;;;;;;5046451;28;20208;-69
2023/01/15 13:25:34;;;;;;;3.85;1.00;;;8.50;79.30;;;;;;5045445;28;20212;-67
2023/01/15 13:28:17;;;;;;;3.35;1.02;;;8.40;79.40;;;;;;5044220;28;20239;-68
2023/01/15 13:30:58;;;;;;;2.92;0.60;;;8.50;79.20;;;;;;5041145;28;20207;-67
2023/01/15 13:33:31;;;;;;;2.65;0.50;;;8.40;79.10;;;;;;5046367;28;20212;-70
2023/01/15 13:36:06;;;;;;;2.80;0.50;;;8.40;79.10;;;;;;5043190;28;20193;-70
2023/01/15 13:38:40;;;;;;;3.67;0.65;;;8.40;79.20;;;;;;5048294;28;20480;-70
2023/01/15 13:41:09;;;;;;;2.70;0.60;;;8.30;79.00;;;;;;5042271;28;20278;-70
2023/01/15 13:43:40;;;;;;;3.55;0.80;;;8.30;79.00;;;;;;5047037;28;20200;-71
2023/01/15 13:46:13;;;;;;;2.60;0.70;;;8.30;79.10;;;;;;5052946;28;20227;-69
2023/01/15 13:48:44;;;;;;;2.60;0.70;;;8.20;79.00;;;;;;5050579;28;21216;-71
2023/01/15 13:51:29;;;;;;;3.80;0.60;;;8.20;78.90;;;;;;5048949;28;20875;-70
2023/01/15 13:53:59;;;;;;;2.78;0.50;;;8.10;78.90;;;;;;5043185;28;20292;-71
2023/01/15 13:56:29;;;;;;;3.08;0.50;;;8.10;79.00;;;;;;5055857;28;20240;-68